sensor_id;sensor_type;location;lat;lon;timestamp;P1;durP1;ratioP1;P2;durP2;ratioP2
16826;SDS011;8530;49.540;8.576;2023-06-14T00:00:45;6.40;;;5.10;;
16826;SDS011;8530;49.540;8.576;2023-06-14T00:03:13;23.73;;;5.30;;
16826;SDS011;8530;49.540;8.576;2023-06-14T00:05:44;5.00;;;4.50;;
16826;SDS011;8530;49.540;8.576;2023-06-14T00:08:11;5.37;;;4.50;;
16826;SDS011;8530;49.540;8.576;2023-06-14T00:10:38;9.40;;;5.13;;
16826;SDS011;8530;49.540;8.576;2023-06-14T00:13:06;8.63;;;5.50;;
16826;SDS011;8530;49.540;8.576;2023-06-14T00:15:34;6.67;;;4.90;;
16826;SDS011;8530;49.540;8.576;2023-06-14T00:18:01;7.33;;;5.27;;
16826;SDS011;8530;49.540;8.576;2023-06-14T00:20:28;7.60;;;4.90;;
16826;SDS011;8530;49.540;8.576;2023-06-14T00:22:57;9.60;;;5.70;;
16826;SDS011;8530;49.540;8.576;2023-06-14T00:25:23;9.23;;;6.03;;
16826;SDS011;8530;49.540;8.576;2023-06-14T00:27:51;12.23;;;6.80;;
16826;SDS011;8530;49.540;8.576;2023-06-14T00:30:18;7.73;;;5.73;;
16826;SDS011;8530;49.540;8.576;2023-06-14T00:32:45;6.37;;;5.70;;
16826;SDS011;8530;49.540;8.576;2023-06-14T00:35:12;11.70;;;5.47;;
16826;SDS011;8530;49.540;8.576;2023-06-14T00:37:40;5.70;;;5.00;;
16826;SDS011;8530;49.540;8.576;2023-06-14T00:40:08;7.53;;;4.90;;
16826;SDS011;8530;49.540;8.576;2023-06-14T00:42:35;6.37;;;5.50;;
16826;SDS011;8530;49.540;8.576;2023-06-14T00:45:02;6.60;;;5.17;;
16826;SDS011;8530;49.540;8.576;2023-06-14T00:47:30;7.23;;;5.47;;
16826;SDS011;8530;49.540;8.576;2023-06-14T00:49:57;6.93;;;5.33;;
16826;SDS011;8530;49.540;8.576;2023-06-14T00:52:24;5.90;;;5.30;;
16826;SDS011;8530;49.540;8.576;2023-06-14T00:54:51;8.30;;;5.10;;
16826;SDS011;8530;49.540;8.576;2023-06-14T00:57:19;5.87;;;5.30;;
16826;SDS011;8530;49.540;8.576;2023-06-14T00:59:47;10.47;;;5.60;;
16826;SDS011;8530;49.540;8.576;2023-06-14T01:02:15;5.03;;;4.53;;
16826;SDS011;8530;49.540;8.576;2023-06-14T01:04:43;8.10;;;4.97;;
16826;SDS011;8530;49.540;8.576;2023-06-14T01:07:15;5.73;;;5.13;;
16826;SDS011;8530;49.540;8.576;2023-06-14T01:09:56;5.80;;;4.97;;
16826;SDS011;8530;49.540;8.576;2023-06-14T01:12:35;7.97;;;5.23;;
16826;SDS011;8530;49.540;8.576;2023-06-14T01:15:06;10.47;;;5.50;;
16826;SDS011;8530;49.540;8.576;2023-06-14T01:17:34;8.30;;;5.23;;
16826;SDS011;8530;49.540;8.576;2023-06-14T01:20:06;7.63;;;5.60;;
16826;SDS011;8530;49.540;8.576;2023-06-14T01:22:37;7.47;;;5.40;;
16826;SDS011;8530;49.540;8.576;2023-06-14T01:25:11;6.87;;;4.90;;
16826;SDS011;8530;49.540;8.576;2023-06-14T01:27:38;5.90;;;4.87;;
16826;SDS011;8530;49.540;8.576;2023-06-14T01:30:06;8.93;;;5.33;;
16826;SDS011;8530;49.540;8.576;2023-06-14T01:32:35;5.33;;;4.63;;
16826;SDS011;8530;49.540;8.576;2023-06-14T01:35:02;10.20;;;6.07;;
16826;SDS011;8530;49.540;8.576;2023-06-14T01:37:29;6.10;;;5.50;;
16826;SDS011;8530;49.540;8.576;2023-06-14T01:39:58;9.10;;;5.30;;
16826;SDS011;8530;49.540;8.576;2023-06-14T01:42:25;9.53;;;5.50;;
16826;SDS011;8530;49.540;8.576;2023-06-14T01:44:52;9.60;;;7.50;;
16826;SDS011;8530;49.540;8.576;2023-06-14T01:47:21;10.30;;;6.33;;
16826;SDS011;8530;49.540;8.576;2023-06-14T01:49:47;12.53;;;5.37;;
16826;SDS011;8530;49.540;8.576;2023-06-14T01:52:14;8.87;;;5.13;;
16826;SDS011;8530;49.540;8.576;2023-06-14T01:54:41;8.90;;;5.77;;
16826;SDS011;8530;49.540;8.576;2023-06-14T01:57:09;6.57;;;5.37;;
16826;SDS011;8530;49.540;8.576;2023-06-14T01:59:36;5.90;;;5.30;;
16826;SDS011;8530;49.540;8.576;2023-06-14T02:02:03;7.30;;;4.73;;
16826;SDS011;8530;49.540;8.576;2023-06-14T02:04:30;15.70;;;5.37;;
16826;SDS011;8530;49.540;8.576;2023-06-14T02:06:57;7.70;;;5.10;;
16826;SDS011;8530;49.540;8.576;2023-06-14T02:09:23;7.87;;;5.03;;
16826;SDS011;8530;49.540;8.576;2023-06-14T02:11:50;7.97;;;5.30;;
16826;SDS011;8530;49.540;8.576;2023-06-14T02:14:18;7.13;;;4.57;;
16826;SDS011;8530;49.540;8.576;2023-06-14T02:16:45;6.30;;;5.50;;
16826;SDS011;8530;49.540;8.576;2023-06-14T02:19:14;11.83;;;5.10;;
16826;SDS011;8530;49.540;8.576;2023-06-14T02:21:40;10.80;;;5.37;;
16826;SDS011;8530;49.540;8.576;2023-06-14T02:24:07;6.90;;;4.73;;
16826;SDS011;8530;49.540;8.576;2023-06-14T02:26:34;8.70;;;5.70;;
16826;SDS011;8530;49.540;8.576;2023-06-14T02:29:02;7.00;;;5.80;;
16826;SDS011;8530;49.540;8.576;2023-06-14T02:31:31;7.83;;;5.67;;
16826;SDS011;8530;49.540;8.576;2023-06-14T02:33:59;10.70;;;5.47;;
16826;SDS011;8530;49.540;8.576;2023-06-14T02:36:26;5.87;;;5.27;;
16826;SDS011;8530;49.540;8.576;2023-06-14T02:38:54;6.57;;;5.30;;
16826;SDS011;8530;49.540;8.576;2023-06-14T02:41:22;8.57;;;5.50;;
16826;SDS011;8530;49.540;8.576;2023-06-14T02:43:49;7.63;;;5.07;;
16826;SDS011;8530;49.540;8.576;2023-06-14T02:46:15;7.67;;;5.23;;
16826;SDS011;8530;49.540;8.576;2023-06-14T02:48:44;7.63;;;5.30;;
16826;SDS011;8530;49.540;8.576;2023-06-14T02:51:11;14.37;;;6.30;;
16826;SDS011;8530;49.540;8.576;2023-06-14T02:53:38;7.50;;;5.00;;
16826;SDS011;8530;49.540;8.576;2023-06-14T02:56:05;12.40;;;6.20;;
16826;SDS011;8530;49.540;8.576;2023-06-14T02:58:32;6.63;;;4.53;;
16826;SDS011;8530;49.540;8.576;2023-06-14T03:00:59;6.60;;;5.60;;
16826;SDS011;8530;49.540;8.576;2023-06-14T03:03:28;14.83;;;5.63;;
16826;SDS011;8530;49.540;8.576;2023-06-14T03:05:56;8.17;;;5.30;;
16826;SDS011;8530;49.540;8.576;2023-06-14T03:08:29;8.00;;;5.60;;
16826;SDS011;8530;49.540;8.576;2023-06-14T03:10:56;7.37;;;5.80;;
16826;SDS011;8530;49.540;8.576;2023-06-14T03:13:23;12.10;;;5.27;;
16826;SDS011;8530;49.540;8.576;2023-06-14T03:15:51;15.33;;;5.73;;
16826;SDS011;8530;49.540;8.576;2023-06-14T03:18:18;11.27;;;6.00;;
16826;SDS011;8530;49.540;8.576;2023-06-14T03:20:47;5.43;;;4.80;;
16826;SDS011;8530;49.540;8.576;2023-06-14T03:23:17;8.77;;;6.17;;
16826;SDS011;8530;49.540;8.576;2023-06-14T03:25:44;9.43;;;6.17;;
16826;SDS011;8530;49.540;8.576;2023-06-14T03:28:11;10.90;;;7.13;;
16826;SDS011;8530;49.540;8.576;2023-06-14T03:30:37;14.30;;;6.40;;
16826;SDS011;8530;49.540;8.576;2023-06-14T03:33:04;8.17;;;6.90;;
16826;SDS011;8530;49.540;8.576;2023-06-14T03:35:31;9.23;;;6.17;;
16826;SDS011;8530;49.540;8.576;2023-06-14T03:37:58;6.90;;;6.20;;
16826;SDS011;8530;49.540;8.576;2023-06-14T03:40:26;8.80;;;7.47;;
16826;SDS011;8530;49.540;8.576;2023-06-14T03:42:53;9.90;;;7.27;;
16826;SDS011;8530;49.540;8.576;2023-06-14T03:45:19;9.30;;;7.10;;
16826;SDS011;8530;49.540;8.576;2023-06-14T03:47:46;10.50;;;6.27;;
16826;SDS011;8530;49.540;8.576;2023-06-14T03:50:13;6.70;;;6.10;;
16826;SDS011;8530;49.540;8.576;2023-06-14T03:52:40;9.80;;;7.73;;
16826;SDS011;8530;49.540;8.576;2023-06-14T03:55:08;6.20;;;5.60;;
16826;SDS011;8530;49.540;8.576;2023-06-14T03:57:39;7.13;;;6.43;;
16826;SDS011;8530;49.540;8.576;2023-06-14T04:00:07;10.37;;;7.17;;
16826;SDS011;8530;49.540;8.576;2023-06-14T04:02:36;7.00;;;6.30;;
16826;SDS011;8530;49.540;8.576;2023-06-14T04:05:02;11.80;;;6.10;;
16826;SDS011;8530;49.540;8.576;2023-06-14T04:07:30;12.43;;;6.60;;
16826;SDS011;8530;49.540;8.576;2023-06-14T04:09:57;7.30;;;6.30;;
16826;SDS011;8530;49.540;8.576;2023-06-14T04:12:23;7.63;;;6.93;;
16826;SDS011;8530;49.540;8.576;2023-06-14T04:14:52;10.37;;;8.10;;
16826;SDS011;8530;49.540;8.576;2023-06-14T04:17:19;7.33;;;6.63;;
16826;SDS011;8530;49.540;8.576;2023-06-14T04:19:45;7.13;;;5.90;;
16826;SDS011;8530;49.540;8.576;2023-06-14T04:22:13;11.23;;;6.70;;
16826;SDS011;8530;49.540;8.576;2023-06-14T04:24:39;7.83;;;6.73;;
16826;SDS011;8530;49.540;8.576;2023-06-14T04:27:07;7.70;;;6.30;;
16826;SDS011;8530;49.540;8.576;2023-06-14T04:29:34;9.20;;;6.83;;
16826;SDS011;8530;49.540;8.576;2023-06-14T04:32:02;6.77;;;5.60;;
16826;SDS011;8530;49.540;8.576;2023-06-14T04:34:30;10.40;;;6.47;;
16826;SDS011;8530;49.540;8.576;2023-06-14T04:36:59;7.40;;;6.50;;
16826;SDS011;8530;49.540;8.576;2023-06-14T04:39:26;9.43;;;6.77;;
16826;SDS011;8530;49.540;8.576;2023-06-14T04:41:53;8.93;;;6.50;;
16826;SDS011;8530;49.540;8.576;2023-06-14T04:44:22;10.57;;;6.43;;
16826;SDS011;8530;49.540;8.576;2023-06-14T04:46:54;10.50;;;5.00;;
16826;SDS011;8530;49.540;8.576;2023-06-14T04:49:23;6.23;;;5.63;;
16826;SDS011;8530;49.540;8.576;2023-06-14T04:51:51;5.93;;;4.67;;
16826;SDS011;8530;49.540;8.576;2023-06-14T04:54:22;9.23;;;5.53;;
16826;SDS011;8530;49.540;8.576;2023-06-14T04:56:50;8.10;;;5.17;;
16826;SDS011;8530;49.540;8.576;2023-06-14T04:59:16;11.30;;;5.77;;
16826;SDS011;8530;49.540;8.576;2023-06-14T05:01:44;7.80;;;5.70;;
16826;SDS011;8530;49.540;8.576;2023-06-14T05:04:12;9.90;;;5.40;;
16826;SDS011;8530;49.540;8.576;2023-06-14T05:06:41;7.13;;;5.53;;
16826;SDS011;8530;49.540;8.576;2023-06-14T05:09:09;11.10;;;5.63;;
16826;SDS011;8530;49.540;8.576;2023-06-14T05:11:36;5.53;;;5.03;;
16826;SDS011;8530;49.540;8.576;2023-06-14T05:14:03;19.70;;;6.40;;
16826;SDS011;8530;49.540;8.576;2023-06-14T05:16:31;12.63;;;5.90;;
16826;SDS011;8530;49.540;8.576;2023-06-14T05:18:57;7.63;;;6.00;;
16826;SDS011;8530;49.540;8.576;2023-06-14T05:21:24;13.80;;;5.80;;
16826;SDS011;8530;49.540;8.576;2023-06-14T05:23:52;10.40;;;6.00;;
16826;SDS011;8530;49.540;8.576;2023-06-14T05:26:19;9.50;;;5.23;;
16826;SDS011;8530;49.540;8.576;2023-06-14T05:28:48;5.97;;;5.00;;
16826;SDS011;8530;49.540;8.576;2023-06-14T05:31:17;11.03;;;5.30;;
16826;SDS011;8530;49.540;8.576;2023-06-14T05:33:44;6.50;;;5.00;;
16826;SDS011;8530;49.540;8.576;2023-06-14T05:36:11;8.00;;;4.87;;
16826;SDS011;8530;49.540;8.576;2023-06-14T05:38:37;10.03;;;5.70;;
16826;SDS011;8530;49.540;8.576;2023-06-14T05:41:05;16.17;;;5.73;;
16826;SDS011;8530;49.540;8.576;2023-06-14T05:43:32;8.87;;;4.77;;
16826;SDS011;8530;49.540;8.576;2023-06-14T05:45:59;6.87;;;4.50;;
16826;SDS011;8530;49.540;8.576;2023-06-14T05:48:26;15.40;;;4.50;;
16826;SDS011;8530;49.540;8.576;2023-06-14T05:50:53;10.70;;;4.77;;
16826;SDS011;8530;49.540;8.576;2023-06-14T05:53:19;10.10;;;4.22;;
16826;SDS011;8530;49.540;8.576;2023-06-14T05:55:46;13.93;;;5.20;;
16826;SDS011;8530;49.540;8.576;2023-06-14T05:58:14;9.65;;;4.40;;
16826;SDS011;8530;49.540;8.576;2023-06-14T06:00:41;8.80;;;4.68;;
16826;SDS011;8530;49.540;8.576;2023-06-14T06:03:08;6.68;;;4.82;;
16826;SDS011;8530;49.540;8.576;2023-06-14T06:05:36;10.52;;;4.30;;
16826;SDS011;8530;49.540;8.576;2023-06-14T06:08:03;17.02;;;4.93;;
16826;SDS011;8530;49.540;8.576;2023-06-14T06:10:30;5.07;;;3.53;;
16826;SDS011;8530;49.540;8.576;2023-06-14T06:12:56;6.35;;;4.07;;
16826;SDS011;8530;49.540;8.576;2023-06-14T06:15:25;6.60;;;4.22;;
16826;SDS011;8530;49.540;8.576;2023-06-14T06:17:52;4.85;;;3.88;;
16826;SDS011;8530;49.540;8.576;2023-06-14T06:20:18;10.80;;;4.45;;
16826;SDS011;8530;49.540;8.576;2023-06-14T06:22:46;8.40;;;4.15;;
16826;SDS011;8530;49.540;8.576;2023-06-14T06:25:13;4.53;;;3.40;;
16826;SDS011;8530;49.540;8.576;2023-06-14T06:27:39;7.45;;;3.80;;
16826;SDS011;8530;49.540;8.576;2023-06-14T06:30:07;8.32;;;4.32;;
16826;SDS011;8530;49.540;8.576;2023-06-14T06:32:35;7.07;;;4.47;;
16826;SDS011;8530;49.540;8.576;2023-06-14T06:35:02;9.45;;;3.90;;
16826;SDS011;8530;49.540;8.576;2023-06-14T06:37:31;6.65;;;4.20;;
16826;SDS011;8530;49.540;8.576;2023-06-14T06:39:58;4.43;;;4.03;;
16826;SDS011;8530;49.540;8.576;2023-06-14T06:42:25;5.22;;;3.92;;
16826;SDS011;8530;49.540;8.576;2023-06-14T06:44:51;7.55;;;3.30;;
16826;SDS011;8530;49.540;8.576;2023-06-14T06:47:18;10.45;;;3.50;;
16826;SDS011;8530;49.540;8.576;2023-06-14T06:49:46;14.45;;;3.45;;
16826;SDS011;8530;49.540;8.576;2023-06-14T06:52:13;7.65;;;4.03;;
16826;SDS011;8530;49.540;8.576;2023-06-14T06:54:40;4.75;;;3.70;;
16826;SDS011;8530;49.540;8.576;2023-06-14T06:57:07;5.75;;;3.65;;
16826;SDS011;8530;49.540;8.576;2023-06-14T06:59:33;10.52;;;4.80;;
16826;SDS011;8530;49.540;8.576;2023-06-14T07:02:00;11.30;;;4.03;;
16826;SDS011;8530;49.540;8.576;2023-06-14T07:04:27;6.30;;;3.72;;
16826;SDS011;8530;49.540;8.576;2023-06-14T07:06:55;6.88;;;4.15;;
16826;SDS011;8530;49.540;8.576;2023-06-14T07:09:21;5.65;;;4.03;;
16826;SDS011;8530;49.540;8.576;2023-06-14T07:11:49;3.92;;;3.42;;
16826;SDS011;8530;49.540;8.576;2023-06-14T07:14:17;6.43;;;3.72;;
16826;SDS011;8530;49.540;8.576;2023-06-14T07:16:44;4.82;;;4.00;;
16826;SDS011;8530;49.540;8.576;2023-06-14T07:19:11;5.68;;;3.70;;
16826;SDS011;8530;49.540;8.576;2023-06-14T07:21:38;12.38;;;3.60;;
16826;SDS011;8530;49.540;8.576;2023-06-14T07:24:06;13.13;;;3.70;;
16826;SDS011;8530;49.540;8.576;2023-06-14T07:26:33;5.63;;;3.30;;
16826;SDS011;8530;49.540;8.576;2023-06-14T07:29:01;10.10;;;3.47;;
16826;SDS011;8530;49.540;8.576;2023-06-14T07:31:28;6.18;;;3.60;;
16826;SDS011;8530;49.540;8.576;2023-06-14T07:33:55;6.13;;;3.75;;
16826;SDS011;8530;49.540;8.576;2023-06-14T07:36:22;13.38;;;4.07;;
16826;SDS011;8530;49.540;8.576;2023-06-14T07:38:49;6.43;;;3.80;;
16826;SDS011;8530;49.540;8.576;2023-06-14T07:41:17;7.32;;;4.00;;
16826;SDS011;8530;49.540;8.576;2023-06-14T07:43:44;5.00;;;2.80;;
16826;SDS011;8530;49.540;8.576;2023-06-14T07:46:11;5.15;;;3.30;;
16826;SDS011;8530;49.540;8.576;2023-06-14T07:48:37;5.32;;;3.72;;
16826;SDS011;8530;49.540;8.576;2023-06-14T07:51:04;4.57;;;3.05;;
16826;SDS011;8530;49.540;8.576;2023-06-14T07:53:31;5.35;;;3.40;;
16826;SDS011;8530;49.540;8.576;2023-06-14T07:55:58;5.55;;;3.58;;
16826;SDS011;8530;49.540;8.576;2023-06-14T07:58:27;5.60;;;3.88;;
16826;SDS011;8530;49.540;8.576;2023-06-14T08:00:53;3.58;;;3.25;;
16826;SDS011;8530;49.540;8.576;2023-06-14T08:03:20;5.40;;;3.47;;
16826;SDS011;8530;49.540;8.576;2023-06-14T08:05:47;4.38;;;3.13;;
16826;SDS011;8530;49.540;8.576;2023-06-14T08:08:14;4.05;;;3.50;;
16826;SDS011;8530;49.540;8.576;2023-06-14T08:10:41;3.22;;;2.92;;
16826;SDS011;8530;49.540;8.576;2023-06-14T08:13:08;4.40;;;3.60;;
16826;SDS011;8530;49.540;8.576;2023-06-14T08:15:36;5.18;;;3.20;;
16826;SDS011;8530;49.540;8.576;2023-06-14T08:18:03;5.80;;;3.60;;
16826;SDS011;8530;49.540;8.576;2023-06-14T08:20:30;10.75;;;4.47;;
16826;SDS011;8530;49.540;8.576;2023-06-14T08:22:57;9.52;;;3.83;;
16826;SDS011;8530;49.540;8.576;2023-06-14T08:25:23;4.40;;;4.00;;
16826;SDS011;8530;49.540;8.576;2023-06-14T08:27:50;4.90;;;4.37;;
16826;SDS011;8530;49.540;8.576;2023-06-14T08:30:17;12.03;;;4.70;;
16826;SDS011;8530;49.540;8.576;2023-06-14T08:32:45;4.93;;;3.97;;
16826;SDS011;8530;49.540;8.576;2023-06-14T08:35:12;9.03;;;4.40;;
16826;SDS011;8530;49.540;8.576;2023-06-14T08:37:39;5.90;;;4.27;;
16826;SDS011;8530;49.540;8.576;2023-06-14T08:40:07;7.80;;;4.60;;
16826;SDS011;8530;49.540;8.576;2023-06-14T08:42:45;6.40;;;4.47;;
16826;SDS011;8530;49.540;8.576;2023-06-14T08:45:13;7.23;;;4.33;;
16826;SDS011;8530;49.540;8.576;2023-06-14T08:47:40;8.13;;;4.57;;
16826;SDS011;8530;49.540;8.576;2023-06-14T08:50:08;10.13;;;4.53;;
16826;SDS011;8530;49.540;8.576;2023-06-14T08:52:37;7.93;;;4.13;;
16826;SDS011;8530;49.540;8.576;2023-06-14T08:55:05;8.20;;;4.80;;
16826;SDS011;8530;49.540;8.576;2023-06-14T08:57:33;4.33;;;3.93;;
16826;SDS011;8530;49.540;8.576;2023-06-14T09:00:03;10.20;;;4.20;;
16826;SDS011;8530;49.540;8.576;2023-06-14T09:02:36;4.37;;;3.63;;
16826;SDS011;8530;49.540;8.576;2023-06-14T09:05:03;5.63;;;4.30;;
16826;SDS011;8530;49.540;8.576;2023-06-14T09:07:32;5.43;;;4.07;;
16826;SDS011;8530;49.540;8.576;2023-06-14T09:10:05;13.43;;;4.07;;
16826;SDS011;8530;49.540;8.576;2023-06-14T09:12:34;5.00;;;3.50;;
16826;SDS011;8530;49.540;8.576;2023-06-14T09:15:01;5.43;;;3.20;;
16826;SDS011;8530;49.540;8.576;2023-06-14T09:17:31;4.23;;;3.07;;
16826;SDS011;8530;49.540;8.576;2023-06-14T09:19:58;6.63;;;3.73;;
16826;SDS011;8530;49.540;8.576;2023-06-14T09:22:25;5.53;;;3.90;;
16826;SDS011;8530;49.540;8.576;2023-06-14T09:24:56;12.53;;;3.80;;
16826;SDS011;8530;49.540;8.576;2023-06-14T09:27:24;4.63;;;4.17;;
16826;SDS011;8530;49.540;8.576;2023-06-14T09:29:51;7.20;;;4.30;;
16826;SDS011;8530;49.540;8.576;2023-06-14T09:32:18;8.73;;;3.97;;
16826;SDS011;8530;49.540;8.576;2023-06-14T09:34:45;4.17;;;3.77;;
16826;SDS011;8530;49.540;8.576;2023-06-14T09:37:12;7.03;;;4.00;;
16826;SDS011;8530;49.540;8.576;2023-06-14T09:39:48;6.10;;;4.10;;
16826;SDS011;8530;49.540;8.576;2023-06-14T09:42:17;3.60;;;3.27;;
16826;SDS011;8530;49.540;8.576;2023-06-14T09:44:45;8.70;;;3.77;;
16826;SDS011;8530;49.540;8.576;2023-06-14T09:47:14;6.27;;;4.17;;
16826;SDS011;8530;49.540;8.576;2023-06-14T09:49:41;4.53;;;3.60;;
16826;SDS011;8530;49.540;8.576;2023-06-14T09:52:08;10.50;;;5.43;;
16826;SDS011;8530;49.540;8.576;2023-06-14T09:54:39;10.37;;;3.80;;
16826;SDS011;8530;49.540;8.576;2023-06-14T09:57:08;4.63;;;3.47;;
16826;SDS011;8530;49.540;8.576;2023-06-14T09:59:38;6.67;;;4.00;;
16826;SDS011;8530;49.540;8.576;2023-06-14T10:02:09;4.60;;;3.50;;
16826;SDS011;8530;49.540;8.576;2023-06-14T10:04:39;13.97;;;3.63;;
16826;SDS011;8530;49.540;8.576;2023-06-14T10:07:12;4.40;;;3.63;;
16826;SDS011;8530;49.540;8.576;2023-06-14T10:09:43;8.10;;;3.90;;
16826;SDS011;8530;49.540;8.576;2023-06-14T10:12:14;6.30;;;4.00;;
16826;SDS011;8530;49.540;8.576;2023-06-14T10:14:47;6.40;;;4.73;;
16826;SDS011;8530;49.540;8.576;2023-06-14T10:17:17;5.70;;;4.10;;
16826;SDS011;8530;49.540;8.576;2023-06-14T10:19:50;5.20;;;3.90;;
16826;SDS011;8530;49.540;8.576;2023-06-14T10:22:23;10.33;;;3.90;;
16826;SDS011;8530;49.540;8.576;2023-06-14T10:24:56;8.70;;;3.60;;
16826;SDS011;8530;49.540;8.576;2023-06-14T10:27:23;4.03;;;3.57;;
16826;SDS011;8530;49.540;8.576;2023-06-14T10:30:03;3.70;;;3.17;;
16826;SDS011;8530;49.540;8.576;2023-06-14T10:32:31;6.70;;;4.37;;
16826;SDS011;8530;49.540;8.576;2023-06-14T10:34:59;6.60;;;4.40;;
16826;SDS011;8530;49.540;8.576;2023-06-14T10:37:27;4.30;;;3.77;;
16826;SDS011;8530;49.540;8.576;2023-06-14T10:39:54;6.93;;;3.80;;
16826;SDS011;8530;49.540;8.576;2023-06-14T10:42:21;4.67;;;3.37;;
16826;SDS011;8530;49.540;8.576;2023-06-14T10:44:50;6.10;;;3.00;;
16826;SDS011;8530;49.540;8.576;2023-06-14T10:47:25;8.53;;;4.50;;
16826;SDS011;8530;49.540;8.576;2023-06-14T10:49:57;12.33;;;4.33;;
16826;SDS011;8530;49.540;8.576;2023-06-14T10:52:31;5.50;;;3.57;;
16826;SDS011;8530;49.540;8.576;2023-06-14T10:55:01;6.30;;;3.53;;
16826;SDS011;8530;49.540;8.576;2023-06-14T10:57:34;4.93;;;3.60;;
16826;SDS011;8530;49.540;8.576;2023-06-14T11:00:01;5.10;;;3.30;;
16826;SDS011;8530;49.540;8.576;2023-06-14T11:02:51;4.83;;;3.40;;
16826;SDS011;8530;49.540;8.576;2023-06-14T11:05:30;3.90;;;3.23;;
16826;SDS011;8530;49.540;8.576;2023-06-14T11:08:18;5.07;;;3.60;;
16826;SDS011;8530;49.540;8.576;2023-06-14T11:10:54;4.70;;;3.00;;
16826;SDS011;8530;49.540;8.576;2023-06-14T11:13:23;4.30;;;3.90;;
16826;SDS011;8530;49.540;8.576;2023-06-14T11:15:51;5.20;;;3.33;;
16826;SDS011;8530;49.540;8.576;2023-06-14T11:18:21;6.20;;;4.43;;
16826;SDS011;8530;49.540;8.576;2023-06-14T11:20:49;4.53;;;3.13;;
16826;SDS011;8530;49.540;8.576;2023-06-14T11:23:16;5.20;;;3.60;;
16826;SDS011;8530;49.540;8.576;2023-06-14T11:25:42;5.50;;;3.57;;
16826;SDS011;8530;49.540;8.576;2023-06-14T11:28:09;5.13;;;3.60;;
16826;SDS011;8530;49.540;8.576;2023-06-14T11:30:36;6.07;;;3.97;;
16826;SDS011;8530;49.540;8.576;2023-06-14T11:33:02;4.53;;;4.03;;
16826;SDS011;8530;49.540;8.576;2023-06-14T11:35:31;10.70;;;3.47;;
16826;SDS011;8530;49.540;8.576;2023-06-14T11:37:58;11.07;;;4.20;;
16826;SDS011;8530;49.540;8.576;2023-06-14T11:40:27;5.13;;;4.00;;
16826;SDS011;8530;49.540;8.576;2023-06-14T11:42:58;13.57;;;4.00;;
16826;SDS011;8530;49.540;8.576;2023-06-14T11:45:26;5.27;;;3.70;;
16826;SDS011;8530;49.540;8.576;2023-06-14T11:47:54;4.60;;;2.93;;
16826;SDS011;8530;49.540;8.576;2023-06-14T11:50:22;5.90;;;3.73;;
16826;SDS011;8530;49.540;8.576;2023-06-14T11:52:53;4.80;;;3.40;;
16826;SDS011;8530;49.540;8.576;2023-06-14T11:55:20;4.40;;;4.00;;
16826;SDS011;8530;49.540;8.576;2023-06-14T11:57:47;4.90;;;3.97;;
16826;SDS011;8530;49.540;8.576;2023-06-14T12:00:14;4.37;;;3.47;;
16826;SDS011;8530;49.540;8.576;2023-06-14T12:02:42;8.37;;;3.60;;
16826;SDS011;8530;49.540;8.576;2023-06-14T12:05:19;6.20;;;3.90;;
16826;SDS011;8530;49.540;8.576;2023-06-14T12:07:47;7.57;;;3.30;;
16826;SDS011;8530;49.540;8.576;2023-06-14T12:10:16;5.00;;;3.27;;
16826;SDS011;8530;49.540;8.576;2023-06-14T12:12:43;4.30;;;3.00;;
16826;SDS011;8530;49.540;8.576;2023-06-14T12:15:10;5.80;;;3.77;;
16826;SDS011;8530;49.540;8.576;2023-06-14T12:17:38;3.93;;;3.53;;
16826;SDS011;8530;49.540;8.576;2023-06-14T12:20:08;6.73;;;3.63;;
16826;SDS011;8530;49.540;8.576;2023-06-14T12:22:46;7.93;;;4.00;;
16826;SDS011;8530;49.540;8.576;2023-06-14T12:25:25;4.30;;;3.20;;
16826;SDS011;8530;49.540;8.576;2023-06-14T12:27:53;4.20;;;3.47;;
16826;SDS011;8530;49.540;8.576;2023-06-14T12:30:20;4.30;;;3.53;;
16826;SDS011;8530;49.540;8.576;2023-06-14T12:32:47;5.53;;;3.43;;
16826;SDS011;8530;49.540;8.576;2023-06-14T12:35:16;8.73;;;3.57;;
16826;SDS011;8530;49.540;8.576;2023-06-14T12:37:43;3.93;;;3.13;;
16826;SDS011;8530;49.540;8.576;2023-06-14T12:40:11;3.23;;;2.73;;
16826;SDS011;8530;49.540;8.576;2023-06-14T12:42:39;5.90;;;3.53;;
16826;SDS011;8530;49.540;8.576;2023-06-14T12:45:07;4.70;;;3.47;;
16826;SDS011;8530;49.540;8.576;2023-06-14T12:47:34;6.07;;;3.57;;
16826;SDS011;8530;49.540;8.576;2023-06-14T12:50:01;3.87;;;3.40;;
16826;SDS011;8530;49.540;8.576;2023-06-14T12:52:28;3.90;;;3.33;;
16826;SDS011;8530;49.540;8.576;2023-06-14T12:54:55;4.57;;;3.30;;
16826;SDS011;8530;49.540;8.576;2023-06-14T12:57:22;4.40;;;3.20;;
16826;SDS011;8530;49.540;8.576;2023-06-14T12:59:50;11.73;;;4.03;;
16826;SDS011;8530;49.540;8.576;2023-06-14T13:02:18;4.93;;;3.33;;
16826;SDS011;8530;49.540;8.576;2023-06-14T13:04:47;3.80;;;3.30;;
16826;SDS011;8530;49.540;8.576;2023-06-14T13:07:14;4.43;;;3.63;;
16826;SDS011;8530;49.540;8.576;2023-06-14T13:09:41;4.63;;;3.17;;
16826;SDS011;8530;49.540;8.576;2023-06-14T13:12:08;12.03;;;3.60;;
16826;SDS011;8530;49.540;8.576;2023-06-14T13:14:37;4.40;;;3.47;;
16826;SDS011;8530;49.540;8.576;2023-06-14T13:17:05;7.47;;;4.33;;
16826;SDS011;8530;49.540;8.576;2023-06-14T13:19:32;5.03;;;3.60;;
16826;SDS011;8530;49.540;8.576;2023-06-14T13:21:59;5.33;;;3.80;;
16826;SDS011;8530;49.540;8.576;2023-06-14T13:24:25;5.37;;;3.60;;
16826;SDS011;8530;49.540;8.576;2023-06-14T13:26:53;8.80;;;4.07;;
16826;SDS011;8530;49.540;8.576;2023-06-14T13:29:20;5.67;;;4.30;;
16826;SDS011;8530;49.540;8.576;2023-06-14T13:31:47;9.40;;;4.10;;
16826;SDS011;8530;49.540;8.576;2023-06-14T13:34:15;6.47;;;4.13;;
16826;SDS011;8530;49.540;8.576;2023-06-14T13:36:41;8.93;;;4.20;;
16826;SDS011;8530;49.540;8.576;2023-06-14T13:39:09;5.27;;;3.97;;
16826;SDS011;8530;49.540;8.576;2023-06-14T13:41:36;4.60;;;3.77;;
16826;SDS011;8530;49.540;8.576;2023-06-14T13:44:02;5.87;;;3.47;;
16826;SDS011;8530;49.540;8.576;2023-06-14T13:46:30;6.53;;;3.57;;
16826;SDS011;8530;49.540;8.576;2023-06-14T13:48:56;5.00;;;3.90;;
16826;SDS011;8530;49.540;8.576;2023-06-14T13:51:26;5.10;;;3.60;;
16826;SDS011;8530;49.540;8.576;2023-06-14T13:53:54;4.00;;;3.47;;
16826;SDS011;8530;49.540;8.576;2023-06-14T13:56:20;5.60;;;3.23;;
16826;SDS011;8530;49.540;8.576;2023-06-14T13:58:49;5.37;;;3.80;;
16826;SDS011;8530;49.540;8.576;2023-06-14T14:01:16;9.00;;;3.90;;
16826;SDS011;8530;49.540;8.576;2023-06-14T14:03:44;5.83;;;4.33;;
16826;SDS011;8530;49.540;8.576;2023-06-14T14:06:11;8.97;;;4.40;;
16826;SDS011;8530;49.540;8.576;2023-06-14T14:08:40;4.67;;;3.60;;
16826;SDS011;8530;49.540;8.576;2023-06-14T14:11:07;6.60;;;4.20;;
16826;SDS011;8530;49.540;8.576;2023-06-14T14:13:34;6.00;;;3.80;;
16826;SDS011;8530;49.540;8.576;2023-06-14T14:16:01;4.33;;;3.87;;
16826;SDS011;8530;49.540;8.576;2023-06-14T14:18:28;4.27;;;3.53;;
16826;SDS011;8530;49.540;8.576;2023-06-14T14:20:55;5.33;;;3.80;;
16826;SDS011;8530;49.540;8.576;2023-06-14T14:23:23;3.77;;;3.40;;
16826;SDS011;8530;49.540;8.576;2023-06-14T14:25:51;4.80;;;3.90;;
16826;SDS011;8530;49.540;8.576;2023-06-14T14:28:18;7.50;;;3.87;;
16826;SDS011;8530;49.540;8.576;2023-06-14T14:30:45;4.40;;;4.00;;
16826;SDS011;8530;49.540;8.576;2023-06-14T14:33:12;4.87;;;3.70;;
16826;SDS011;8530;49.540;8.576;2023-06-14T14:35:40;4.93;;;3.80;;
16826;SDS011;8530;49.540;8.576;2023-06-14T14:38:08;4.27;;;3.87;;
16826;SDS011;8530;49.540;8.576;2023-06-14T14:40:34;6.13;;;3.83;;
16826;SDS011;8530;49.540;8.576;2023-06-14T14:43:02;6.30;;;3.73;;
16826;SDS011;8530;49.540;8.576;2023-06-14T14:45:30;5.80;;;3.90;;
16826;SDS011;8530;49.540;8.576;2023-06-14T14:47:56;6.23;;;4.50;;
16826;SDS011;8530;49.540;8.576;2023-06-14T14:50:24;6.50;;;4.30;;
16826;SDS011;8530;49.540;8.576;2023-06-14T14:52:51;5.57;;;4.33;;
16826;SDS011;8530;49.540;8.576;2023-06-14T14:55:18;5.17;;;3.83;;
16826;SDS011;8530;49.540;8.576;2023-06-14T14:57:45;5.40;;;3.97;;
16826;SDS011;8530;49.540;8.576;2023-06-14T15:00:13;6.07;;;4.17;;
16826;SDS011;8530;49.540;8.576;2023-06-14T15:02:40;10.40;;;4.60;;